createdAt,value
2023-05-05T00:00:59.494Z,100402.38
2023-05-05T00:03:28.754Z,100401.34
2023-05-05T00:05:56.814Z,100402.72
2023-05-05T00:08:24.346Z,100391.72
2023-05-05T00:10:53.270Z,100395.25
2023-05-05T00:13:21.630Z,100400.75
2023-05-05T00:15:50.556Z,100397.56
2023-05-05T00:18:18.880Z,100398.81
2023-05-05T00:20:48.487Z,100399.31
2023-05-05T00:23:16.062Z,100388.03
2023-05-05T00:25:43.574Z,100393.00
2023-05-05T00:28:11.130Z,100387.81
2023-05-05T00:30:40.153Z,100378.38
2023-05-05T00:33:07.687Z,100386.41
2023-05-05T00:35:35.241Z,100390.78
2023-05-05T00:38:04.064Z,100396.44
2023-05-05T00:40:31.865Z,100396.31
2023-05-05T00:42:59.641Z,100388.22
2023-05-05T00:45:27.253Z,100382.09
2023-05-05T00:47:55.768Z,100384.31
2023-05-05T00:50:24.895Z,100378.63
2023-05-05T00:52:54.863Z,100378.06
2023-05-05T00:55:23.742Z,100379.97
2023-05-05T00:57:51.313Z,100380.25
2023-05-05T01:00:19.020Z,100375.97
2023-05-05T01:02:46.820Z,100366.91
2023-05-05T01:05:16.041Z,100375.03
2023-05-05T01:07:52.194Z,100358.31
2023-05-05T01:10:27.031Z,100351.00
2023-05-05T01:13:04.249Z,100347.78
2023-05-05T01:15:34.503Z,100351.31
2023-05-05T01:18:07.713Z,100348.88
2023-05-05T01:20:42.183Z,100353.03
2023-05-05T01:23:10.888Z,100354.97
2023-05-05T01:25:52.732Z,100348.84
2023-05-05T01:28:27.472Z,100347.28
2023-05-05T01:31:10.682Z,100343.69
2023-05-05T01:33:49.530Z,100335.75
2023-05-05T01:36:24.704Z,100342.25
2023-05-05T01:38:55.265Z,100337.47
2023-05-05T01:41:25.418Z,100335.16
2023-05-05T01:43:53.786Z,100336.91
2023-05-05T01:46:22.849Z,100333.38
2023-05-05T01:48:52.856Z,100330.13
2023-05-05T01:51:21.322Z,100327.09
2023-05-05T01:53:49.735Z,100330.47
2023-05-05T01:56:17.609Z,100332.97
2023-05-05T01:58:46.528Z,100336.50
2023-05-05T02:01:14.707Z,100330.13
2023-05-05T02:03:42.868Z,100327.59
2023-05-05T02:06:12.975Z,100339.34
2023-05-05T02:08:40.892Z,100334.72
2023-05-05T02:11:10.021Z,100328.28
2023-05-05T02:13:37.929Z,100326.81
2023-05-05T02:16:06.132Z,100324.84
2023-05-05T02:18:35.882Z,100336.88
2023-05-05T02:21:03.665Z,100334.78
2023-05-05T02:23:32.549Z,100322.28
2023-05-05T02:26:03.574Z,100331.41
2023-05-05T02:28:36.685Z,100331.84
2023-05-05T02:31:05.976Z,100329.00
2023-05-05T02:33:34.467Z,100336.88
2023-05-05T02:36:07.096Z,100331.84
2023-05-05T02:38:38.310Z,100328.66
2023-05-05T02:41:06.738Z,100331.44
2023-05-05T02:43:35.436Z,100327.41
2023-05-05T02:46:02.961Z,100320.91
2023-05-05T02:48:30.537Z,100324.09
2023-05-05T02:50:58.267Z,100328.66
2023-05-05T02:53:27.264Z,100323.28
2023-05-05T02:56:12.128Z,100324.69
2023-05-05T02:58:44.038Z,100317.81
2023-05-05T03:01:18.981Z,100323.13
2023-05-05T03:03:51.325Z,100324.03
2023-05-05T03:06:21.088Z,100311.53
2023-05-05T03:08:53.272Z,100307.78
2023-05-05T03:11:27.150Z,100305.31
2023-05-05T03:14:06.821Z,100312.47
2023-05-05T03:16:35.758Z,100316.56
2023-05-05T03:19:04.708Z,100315.09
2023-05-05T03:21:33.111Z,100314.69
2023-05-05T03:24:01.354Z,100313.00
2023-05-05T03:26:30.168Z,100308.94
2023-05-05T03:28:57.654Z,100312.03
2023-05-05T03:31:25.169Z,100319.66
2023-05-05T03:33:53.056Z,100314.22
2023-05-05T03:36:20.544Z,100312.06
2023-05-05T03:38:48.003Z,100302.72
2023-05-05T03:41:15.473Z,100307.94
2023-05-05T03:43:44.266Z,100310.09
2023-05-05T03:46:12.459Z,100309.31
2023-05-05T03:48:41.724Z,100303.69
2023-05-05T03:51:09.261Z,100304.16
2023-05-05T03:53:37.010Z,100308.19
2023-05-05T03:56:05.370Z,100304.16
2023-05-05T03:58:32.908Z,100305.34
2023-05-05T04:01:01.775Z,100306.94
2023-05-05T04:03:29.316Z,100308.47
2023-05-05T04:05:56.884Z,100308.91
2023-05-05T04:08:24.379Z,100304.44
2023-05-05T04:10:52.041Z,100305.81
2023-05-05T04:13:19.579Z,100305.88
2023-05-05T04:15:47.137Z,100312.84
2023-05-05T04:18:16.000Z,100310.72
2023-05-05T04:20:43.776Z,100311.31
2023-05-05T04:23:11.257Z,100314.53
2023-05-05T04:25:38.772Z,100321.66
2023-05-05T04:28:06.249Z,100318.78
2023-05-05T04:30:33.859Z,100314.91
2023-05-05T04:33:01.361Z,100315.06
2023-05-05T04:35:30.411Z,100323.44
2023-05-05T04:37:57.901Z,100311.81
2023-05-05T04:40:26.223Z,100301.94
2023-05-05T04:42:53.723Z,100306.03
2023-05-05T04:45:21.214Z,100309.13
2023-05-05T04:47:48.826Z,100306.31
2023-05-05T04:50:16.736Z,100306.94
2023-05-05T04:52:45.534Z,100303.78
2023-05-05T04:55:13.108Z,100310.97
2023-05-05T04:57:40.762Z,100314.38
2023-05-05T05:00:09.962Z,100305.81
2023-05-05T05:02:38.470Z,100297.06
2023-05-05T05:05:06.819Z,100302.19
2023-05-05T05:07:34.284Z,100311.19
2023-05-05T05:10:03.176Z,100316.97
2023-05-05T05:12:30.683Z,100315.19
2023-05-05T05:14:58.218Z,100313.09
2023-05-05T05:17:26.732Z,100319.53
2023-05-05T05:19:55.303Z,100318.25
2023-05-05T05:22:22.804Z,100310.81
2023-05-05T05:24:50.307Z,100316.06
2023-05-05T05:27:19.184Z,100309.06
2023-05-05T05:29:46.706Z,100313.06
2023-05-05T05:32:14.310Z,100312.38
2023-05-05T05:34:41.903Z,100317.81
2023-05-05T05:37:09.408Z,100310.09
2023-05-05T05:39:36.899Z,100312.47
2023-05-05T05:42:04.559Z,100316.41
2023-05-05T05:44:33.702Z,100316.03
2023-05-05T05:47:01.181Z,100316.16
2023-05-05T05:49:28.662Z,100318.84
2023-05-05T05:51:56.218Z,100318.91
2023-05-05T05:54:23.758Z,100321.75
2023-05-05T05:56:51.230Z,100314.28
2023-05-05T05:59:18.722Z,100327.28
2023-05-05T06:01:47.588Z,100333.31
2023-05-05T06:04:15.148Z,100326.94
2023-05-05T06:06:42.673Z,100332.06
2023-05-05T06:09:10.168Z,100327.94
2023-05-05T06:11:37.700Z,100331.22
2023-05-05T06:14:05.209Z,100330.75
2023-05-05T06:16:33.228Z,100333.56
2023-05-05T06:19:02.222Z,100332.75
2023-05-05T06:21:29.836Z,100327.84
2023-05-05T06:23:57.384Z,100319.72
2023-05-05T06:26:24.986Z,100319.19
2023-05-05T06:28:52.521Z,100331.00
2023-05-05T06:31:20.038Z,100318.00
2023-05-05T06:33:47.601Z,100323.84
2023-05-05T06:36:16.502Z,100323.94
2023-05-05T06:38:44.068Z,100319.72
2023-05-05T06:41:11.554Z,100327.25
2023-05-05T06:43:39.562Z,100327.00
2023-05-05T06:46:07.042Z,100326.97
2023-05-05T06:48:34.521Z,100320.69
2023-05-05T06:51:03.059Z,100329.13
2023-05-05T06:53:31.901Z,100330.34
2023-05-05T06:55:59.396Z,100339.22
2023-05-05T06:58:27.118Z,100332.19
2023-05-05T07:00:54.971Z,100334.38
2023-05-05T07:03:22.508Z,100340.81
2023-05-05T07:05:50.186Z,100335.38
2023-05-05T07:08:17.662Z,100334.00
2023-05-05T07:10:47.130Z,100338.91
2023-05-05T07:13:16.974Z,100341.31
2023-05-05T07:15:46.424Z,100337.81
2023-05-05T07:18:14.227Z,100330.03
2023-05-05T07:20:42.237Z,100331.19
2023-05-05T07:23:09.785Z,100333.00
2023-05-05T07:25:37.264Z,100336.72
2023-05-05T07:28:06.411Z,100331.84
2023-05-05T07:30:33.969Z,100335.00
2023-05-05T07:33:01.574Z,100331.66
2023-05-05T07:35:29.530Z,100317.91
2023-05-05T07:37:57.082Z,100318.84
2023-05-05T07:40:24.608Z,100314.91
2023-05-05T07:42:52.202Z,100313.84
2023-05-05T07:45:21.091Z,100320.75
2023-05-05T07:47:48.611Z,100310.19
2023-05-05T07:50:16.290Z,100312.13
2023-05-05T07:52:49.871Z,100303.53
2023-05-05T07:55:21.565Z,100302.19
2023-05-05T07:57:49.627Z,100302.38
2023-05-05T08:00:19.355Z,100301.88
2023-05-05T08:02:48.756Z,100296.66
2023-05-05T08:05:16.500Z,100298.53
2023-05-05T08:07:44.063Z,100305.94
2023-05-05T08:10:12.561Z,100309.13
2023-05-05T08:12:40.632Z,100305.09
2023-05-05T08:15:09.352Z,100310.00
2023-05-05T08:17:52.194Z,100311.22
2023-05-05T08:20:20.426Z,100305.88
2023-05-05T08:22:48.324Z,100305.16
2023-05-05T08:25:15.889Z,100306.31
2023-05-05T08:27:44.050Z,100299.13
2023-05-05T08:30:12.379Z,100302.56
2023-05-05T08:32:39.957Z,100303.94
2023-05-05T08:35:09.688Z,100315.63
2023-05-05T08:37:37.440Z,100313.56
2023-05-05T08:40:05.830Z,100319.03
2023-05-05T08:42:37.766Z,100317.47
2023-05-05T08:45:06.416Z,100319.34
2023-05-05T08:47:34.461Z,100300.91
2023-05-05T08:50:02.362Z,100305.13
2023-05-05T08:52:37.369Z,100313.97
2023-05-05T08:55:13.936Z,100300.44
2023-05-05T08:57:46.606Z,100303.72
2023-05-05T09:00:15.158Z,100308.56
2023-05-05T09:02:43.904Z,100305.66
2023-05-05T09:05:11.693Z,100299.47
2023-05-05T09:07:41.398Z,100292.88
2023-05-05T09:10:10.531Z,100302.19
2023-05-05T09:12:40.347Z,100294.16
2023-05-05T09:15:09.670Z,100284.38
2023-05-05T09:17:37.516Z,100293.34
2023-05-05T09:20:07.192Z,100292.72
2023-05-05T09:22:40.511Z,100277.88
2023-05-05T09:25:10.456Z,100298.88
2023-05-05T09:27:39.284Z,100300.56
2023-05-05T09:30:07.953Z,100304.25
2023-05-05T09:32:47.535Z,100306.34
2023-05-05T09:35:15.714Z,100309.19
2023-05-05T09:37:44.871Z,100299.31
2023-05-05T09:40:14.272Z,100298.09
2023-05-05T09:42:42.107Z,100299.66
2023-05-05T09:45:27.283Z,100294.13
2023-05-05T09:47:59.566Z,100287.13
2023-05-05T09:50:30.459Z,100291.47
2023-05-05T09:53:00.848Z,100295.03
2023-05-05T09:55:28.428Z,100290.53
2023-05-05T09:57:56.157Z,100291.28
2023-05-05T10:00:24.387Z,100283.00
2023-05-05T10:02:51.974Z,100283.78
2023-05-05T10:05:20.137Z,100274.88
2023-05-05T10:07:48.497Z,100286.97
2023-05-05T10:10:18.146Z,100278.00
2023-05-05T10:12:47.260Z,100279.56
2023-05-05T10:15:16.510Z,100278.00
2023-05-05T10:18:02.412Z,100271.78
2023-05-05T10:20:34.269Z,100274.28
2023-05-05T10:23:03.497Z,100269.13
2023-05-05T10:25:41.263Z,100275.84
2023-05-05T10:28:11.198Z,100267.59
2023-05-05T10:30:44.312Z,100261.28
2023-05-05T10:33:30.322Z,100263.06
2023-05-05T10:36:01.925Z,100268.78
2023-05-05T10:38:30.026Z,100265.66
2023-05-05T10:40:59.056Z,100267.06
2023-05-05T10:43:26.872Z,100268.78
2023-05-05T10:45:54.807Z,100260.09
2023-05-05T10:48:28.743Z,100260.09
2023-05-05T10:51:00.623Z,100253.63
2023-05-05T10:53:30.181Z,100259.56
2023-05-05T10:56:04.411Z,100263.44
2023-05-05T10:58:44.089Z,100244.16
2023-05-05T11:01:29.882Z,100252.06
2023-05-05T11:04:22.546Z,100243.75
2023-05-05T11:07:27.440Z,100252.03
2023-05-05T11:09:56.627Z,100252.47
2023-05-05T11:12:25.737Z,100247.44
2023-05-05T11:15:30.585Z,100255.38
2023-05-05T11:17:58.953Z,100242.47
2023-05-05T11:21:04.046Z,100250.03
2023-05-05T11:23:31.904Z,100248.69
2023-05-05T11:25:59.969Z,100257.00
2023-05-05T11:28:31.140Z,100254.06
2023-05-05T11:31:18.512Z,100250.94
2023-05-05T11:33:46.113Z,100249.25
2023-05-05T11:36:14.387Z,100254.31
2023-05-05T11:38:53.777Z,100244.91
2023-05-05T11:41:31.972Z,100237.69
2023-05-05T11:44:14.748Z,100237.25
2023-05-05T11:47:02.734Z,100235.53
2023-05-05T11:49:32.556Z,100235.31
2023-05-05T11:52:00.940Z,100224.94
2023-05-05T11:54:29.079Z,100226.97
2023-05-05T11:56:58.825Z,100231.38
2023-05-05T11:59:26.510Z,100240.09
2023-05-05T12:01:54.163Z,100235.84
2023-05-05T12:04:21.761Z,100230.31
2023-05-05T12:06:50.764Z,100242.19
2023-05-05T12:09:19.734Z,100242.16
2023-05-05T12:11:50.562Z,100241.75
2023-05-05T12:14:18.085Z,100242.97
2023-05-05T12:16:55.059Z,100240.13
2023-05-05T12:19:22.628Z,100239.78
2023-05-05T12:21:54.165Z,100247.13
2023-05-05T12:24:21.911Z,100251.59
2023-05-05T12:26:49.436Z,100242.06
2023-05-05T12:29:24.922Z,100231.59
2023-05-05T12:31:52.510Z,100228.41
2023-05-05T12:34:20.383Z,100231.56
2023-05-05T12:36:48.229Z,100225.41
2023-05-05T12:39:17.056Z,100226.69
2023-05-05T12:41:44.736Z,100227.31
2023-05-05T12:44:12.234Z,100227.50
2023-05-05T12:46:46.181Z,100227.28
2023-05-05T12:49:13.703Z,100223.34
2023-05-05T12:51:53.698Z,100220.38
2023-05-05T12:54:23.756Z,100215.28
2023-05-05T12:56:51.345Z,100212.44
2023-05-05T12:59:31.313Z,100211.13
2023-05-05T13:02:01.417Z,100201.66
2023-05-05T13:04:29.613Z,100206.31
2023-05-05T13:07:11.094Z,100200.13
2023-05-05T13:09:40.089Z,100194.91
2023-05-05T13:12:08.537Z,100194.41
2023-05-05T13:14:36.345Z,100197.78
2023-05-05T13:17:03.890Z,100187.06
2023-05-05T13:19:31.717Z,100182.53
2023-05-05T13:21:59.836Z,100183.06
2023-05-05T13:24:42.345Z,100181.84
2023-05-05T13:27:16.406Z,100181.78
2023-05-05T13:29:47.031Z,100181.50
2023-05-05T13:32:14.518Z,100171.91
2023-05-05T13:34:42.600Z,100162.38
2023-05-05T13:37:10.207Z,100167.00
2023-05-05T13:39:37.863Z,100161.75
2023-05-05T13:42:05.638Z,100164.16
2023-05-05T13:44:35.314Z,100154.53
2023-05-05T13:47:03.081Z,100152.88
2023-05-05T13:49:30.605Z,100144.13
2023-05-05T13:51:58.525Z,100138.84
2023-05-05T13:54:26.060Z,100135.91
2023-05-05T13:56:53.558Z,100134.59
2023-05-05T13:59:21.785Z,100130.38
2023-05-05T14:01:50.708Z,100128.75
2023-05-05T14:04:18.295Z,100135.22
2023-05-05T14:06:45.872Z,100128.66
2023-05-05T14:09:13.371Z,100125.75
2023-05-05T14:11:41.086Z,100119.97
2023-05-05T14:14:08.667Z,100115.63
2023-05-05T14:16:36.309Z,100111.66
2023-05-05T14:19:05.331Z,100110.63
2023-05-05T14:21:33.493Z,100107.78
2023-05-05T14:24:00.980Z,100106.47
2023-05-05T14:26:29.147Z,100104.88
2023-05-05T14:28:56.625Z,100108.56
2023-05-05T14:31:24.208Z,100106.47
2023-05-05T14:33:51.735Z,100102.63
2023-05-05T14:36:20.631Z,100099.91
2023-05-05T14:38:48.144Z,100103.91
2023-05-05T14:41:15.650Z,100099.47
2023-05-05T14:43:43.126Z,100097.16
2023-05-05T14:46:10.721Z,100098.50
2023-05-05T14:48:38.348Z,100101.13
2023-05-05T14:51:06.353Z,100090.59
2023-05-05T14:53:35.788Z,100094.16
2023-05-05T14:56:03.352Z,100092.38
2023-05-05T14:58:31.057Z,100099.75
2023-05-05T15:00:58.941Z,100096.81
2023-05-05T15:03:26.613Z,100091.78
2023-05-05T15:05:54.172Z,100095.06
2023-05-05T15:08:22.041Z,100087.78
2023-05-05T15:10:50.879Z,100085.31
2023-05-05T15:13:18.627Z,100081.97
2023-05-05T15:15:46.325Z,100075.38
2023-05-05T15:18:13.856Z,100076.94
2023-05-05T15:20:41.406Z,100072.91
2023-05-05T15:23:08.890Z,100078.31
2023-05-05T15:25:36.542Z,100077.63
2023-05-05T15:28:05.426Z,100068.47
2023-05-05T15:30:33.173Z,100070.56
2023-05-05T15:33:00.721Z,100063.25
2023-05-05T15:35:28.267Z,100070.63
2023-05-05T15:37:55.908Z,100066.00
2023-05-05T15:40:23.818Z,100062.00
2023-05-05T15:42:51.526Z,100053.28
2023-05-05T15:45:20.395Z,100059.56
2023-05-05T15:47:48.012Z,100061.44
2023-05-05T15:50:16.112Z,100060.63
2023-05-05T15:52:43.697Z,100060.00
2023-05-05T15:55:11.529Z,100065.78
2023-05-05T15:57:40.360Z,100065.59
2023-05-05T16:00:09.284Z,100059.56
2023-05-05T16:02:38.224Z,100069.03
2023-05-05T16:05:06.842Z,100066.56
2023-05-05T16:07:34.579Z,100065.00
2023-05-05T16:10:02.100Z,100062.59
2023-05-05T16:12:29.686Z,100056.41
2023-05-05T16:14:57.228Z,100054.25
2023-05-05T16:17:24.802Z,100056.63
2023-05-05T16:19:53.722Z,100054.56
2023-05-05T16:22:21.778Z,100056.81
2023-05-05T16:24:49.273Z,100053.97
2023-05-05T16:27:16.753Z,100056.94
2023-05-05T16:29:44.262Z,100054.06
2023-05-05T16:32:11.742Z,100048.72
2023-05-05T16:34:39.257Z,100047.84
2023-05-05T16:37:08.095Z,100046.66
2023-05-05T16:39:40.107Z,100048.56
2023-05-05T16:42:07.781Z,100056.63
2023-05-05T16:44:35.295Z,100057.97
2023-05-05T16:47:02.821Z,100048.97
2023-05-05T16:49:30.380Z,100049.41
2023-05-05T16:51:58.218Z,100048.44
2023-05-05T16:54:27.079Z,100054.34
2023-05-05T16:56:54.926Z,100047.06
2023-05-05T16:59:22.459Z,100050.47
2023-05-05T17:01:49.954Z,100051.88
2023-05-05T17:04:17.435Z,100042.53
2023-05-05T17:06:44.971Z,100056.19
2023-05-05T17:09:12.554Z,100050.22
2023-05-05T17:11:41.398Z,100046.97
2023-05-05T17:14:08.903Z,100046.81
2023-05-05T17:16:36.792Z,100037.81
2023-05-05T17:19:04.312Z,100038.84
2023-05-05T17:21:32.812Z,100036.41
2023-05-05T17:24:01.347Z,100029.84
2023-05-05T17:26:28.834Z,100038.28
2023-05-05T17:28:57.635Z,100034.00
2023-05-05T17:31:25.227Z,100027.91
2023-05-05T17:33:52.736Z,100042.59
2023-05-05T17:36:20.238Z,100043.66
2023-05-05T17:38:47.765Z,100049.09
2023-05-05T17:41:15.265Z,100056.78
2023-05-05T17:43:42.767Z,100068.53
2023-05-05T17:46:11.821Z,100070.91
2023-05-05T17:48:39.362Z,100071.81
2023-05-05T17:51:06.881Z,100085.97
2023-05-05T17:53:34.437Z,100107.47
2023-05-05T17:56:01.958Z,100106.41
2023-05-05T17:58:29.497Z,100126.09
2023-05-05T18:00:57.048Z,100128.69
2023-05-05T18:03:26.190Z,100139.34
2023-05-05T18:05:53.937Z,100140.59
2023-05-05T18:08:21.444Z,100149.41
2023-05-05T18:10:48.988Z,100157.84
2023-05-05T18:13:16.528Z,100157.56
2023-05-05T18:15:44.132Z,100169.25
2023-05-05T18:18:11.679Z,100180.53
2023-05-05T18:20:40.989Z,100180.66
2023-05-05T18:23:08.637Z,100184.88
2023-05-05T18:25:36.145Z,100190.97
2023-05-05T18:28:03.698Z,100196.28
2023-05-05T18:30:31.421Z,100204.72
2023-05-05T18:32:58.965Z,100219.16
2023-05-05T18:35:26.839Z,100215.78
2023-05-05T18:37:56.988Z,100227.50
2023-05-05T18:40:24.516Z,100229.88
2023-05-05T18:42:52.038Z,100229.91
2023-05-05T18:45:19.645Z,100237.88
2023-05-05T18:47:47.501Z,100242.06
2023-05-05T18:50:15.054Z,100246.03
2023-05-05T18:52:42.549Z,100247.19
2023-05-05T18:55:11.616Z,100248.31
2023-05-05T18:57:39.222Z,100242.44
2023-05-05T19:00:08.063Z,100245.56
2023-05-05T19:02:35.582Z,100251.53
2023-05-05T19:05:03.792Z,100243.25
2023-05-05T19:07:35.441Z,100240.50
2023-05-05T19:10:05.098Z,100237.94
2023-05-05T19:12:33.983Z,100238.84
2023-05-05T19:15:01.500Z,100234.13
2023-05-05T19:17:29.009Z,100220.09
2023-05-05T19:19:56.628Z,100227.63
2023-05-05T19:22:24.203Z,100225.25
2023-05-05T19:24:51.753Z,100225.63
2023-05-05T19:27:19.253Z,100215.72
2023-05-05T19:29:51.951Z,100209.78
2023-05-05T19:32:20.195Z,100212.81
2023-05-05T19:34:47.890Z,100211.06
2023-05-05T19:37:15.399Z,100209.28
2023-05-05T19:39:44.264Z,100217.50
2023-05-05T19:42:11.918Z,100204.81
2023-05-05T19:44:39.428Z,100199.47
2023-05-05T19:47:09.004Z,100208.47
2023-05-05T19:49:37.834Z,100205.88
2023-05-05T19:52:05.670Z,100202.31
2023-05-05T19:54:33.168Z,100205.00
2023-05-05T19:57:00.718Z,100200.06
2023-05-05T19:59:28.513Z,100196.47
2023-05-05T20:01:56.075Z,100193.13
2023-05-05T20:04:24.917Z,100189.47
2023-05-05T20:06:52.638Z,100182.91
2023-05-05T20:09:20.128Z,100189.16
2023-05-05T20:11:47.615Z,100192.78
2023-05-05T20:14:15.106Z,100192.09
2023-05-05T20:16:42.576Z,100188.63
2023-05-05T20:19:10.062Z,100180.66
2023-05-05T20:21:38.863Z,100176.16
2023-05-05T20:24:07.406Z,100172.97
2023-05-05T20:26:35.031Z,100171.22
2023-05-05T20:29:02.493Z,100160.63
2023-05-05T20:31:30.085Z,100160.88
2023-05-05T20:33:57.605Z,100162.69
2023-05-05T20:36:26.712Z,100155.84
2023-05-05T20:38:55.578Z,100158.38
2023-05-05T20:41:23.071Z,100159.06
2023-05-05T20:43:50.645Z,100164.59
2023-05-05T20:46:18.182Z,100179.09
2023-05-05T20:48:45.796Z,100176.56
2023-05-05T20:51:13.308Z,100173.09
2023-05-05T20:53:40.822Z,100168.63
2023-05-05T20:56:09.630Z,100160.66
2023-05-05T20:58:37.187Z,100166.69
2023-05-05T21:01:04.863Z,100160.31
2023-05-05T21:03:32.489Z,100158.56
2023-05-05T21:06:00.004Z,100155.19
2023-05-05T21:08:27.510Z,100149.44
2023-05-05T21:10:55.008Z,100151.44
2023-05-05T21:13:23.834Z,100151.16
2023-05-05T21:15:51.352Z,100150.63
2023-05-05T21:18:18.862Z,100148.91
2023-05-05T21:20:46.503Z,100143.06
2023-05-05T21:23:13.966Z,100141.09
2023-05-05T21:25:41.473Z,100146.16
2023-05-05T21:28:08.987Z,100157.78
2023-05-05T21:30:38.002Z,100149.03
2023-05-05T21:33:05.753Z,100154.91
2023-05-05T21:35:33.311Z,100159.34
2023-05-05T21:38:00.801Z,100166.94
2023-05-05T21:40:28.334Z,100157.03
2023-05-05T21:42:55.801Z,100160.19
2023-05-05T21:45:23.536Z,100161.84
2023-05-05T21:47:52.416Z,100158.97
2023-05-05T21:50:20.212Z,100160.91
2023-05-05T21:52:47.720Z,100154.06
2023-05-05T21:55:15.496Z,100155.41
2023-05-05T21:57:42.972Z,100151.88
2023-05-05T22:00:16.558Z,100149.69
2023-05-05T22:02:44.189Z,100156.03
2023-05-05T22:05:13.147Z,100150.69
2023-05-05T22:07:40.733Z,100150.09
2023-05-05T22:10:09.423Z,100150.72
2023-05-05T22:12:37.122Z,100150.06
2023-05-05T22:15:05.258Z,100145.53
2023-05-05T22:17:32.859Z,100151.63
2023-05-05T22:20:00.435Z,100146.41
2023-05-05T22:22:29.259Z,100154.84
2023-05-05T22:24:56.751Z,100159.84
2023-05-05T22:27:24.849Z,100155.19
2023-05-05T22:29:52.342Z,100152.44
2023-05-05T22:32:20.408Z,100161.00
2023-05-05T22:34:47.919Z,100160.97
2023-05-05T22:37:15.404Z,100161.22
2023-05-05T22:39:44.205Z,100163.19
2023-05-05T22:42:11.720Z,100161.13
2023-05-05T22:44:39.364Z,100155.44
2023-05-05T22:47:06.980Z,100155.28
2023-05-05T22:49:34.977Z,100149.63
2023-05-05T22:52:03.499Z,100154.81
2023-05-05T22:54:31.005Z,100147.75
2023-05-05T22:56:59.807Z,100156.81
2023-05-05T22:59:27.306Z,100159.75
2023-05-05T23:01:54.793Z,100159.19
2023-05-05T23:04:22.343Z,100160.09
2023-05-05T23:06:49.889Z,100168.13
2023-05-05T23:09:17.497Z,100155.25
2023-05-05T23:11:45.010Z,100156.31
2023-05-05T23:14:13.815Z,100155.88
2023-05-05T23:16:41.380Z,100156.47
2023-05-05T23:19:08.949Z,100155.31
2023-05-05T23:21:49.205Z,100162.59
2023-05-05T23:24:19.893Z,100154.41
2023-05-05T23:26:47.396Z,100152.34
2023-05-05T23:29:16.226Z,100151.56
2023-05-05T23:31:43.735Z,100154.16
2023-05-05T23:34:11.316Z,100158.31
2023-05-05T23:36:38.816Z,100152.56
2023-05-05T23:39:06.345Z,100152.22
2023-05-05T23:41:33.890Z,100159.56
2023-05-05T23:44:01.356Z,100159.75
2023-05-05T23:46:30.487Z,100151.94
2023-05-05T23:48:58.086Z,100158.63
2023-05-05T23:51:27.197Z,100154.22
2023-05-05T23:53:54.764Z,100161.31
2023-05-05T23:56:22.234Z,100156.06
2023-05-05T23:58:49.725Z,100158.78
